sensor_id;sensor_type;location;lat;lon;timestamp;temperature;humidity
17728;DHT22;8984;49.268;12.302;2023-03-31T00:00:15;10.60;99.90
17728;DHT22;8984;49.268;12.302;2023-03-31T00:02:44;10.60;99.90
17728;DHT22;8984;49.268;12.302;2023-03-31T00:05:20;10.60;99.90
17728;DHT22;8984;49.268;12.302;2023-03-31T00:07:52;10.60;99.90
17728;DHT22;8984;49.268;12.302;2023-03-31T00:10:26;10.60;99.90
17728;DHT22;8984;49.268;12.302;2023-03-31T00:13:10;10.60;99.90
17728;DHT22;8984;49.268;12.302;2023-03-31T00:15:56;10.60;99.90
17728;DHT22;8984;49.268;12.302;2023-03-31T00:18:27;10.70;99.90
17728;DHT22;8984;49.268;12.302;2023-03-31T00:21:05;10.60;99.90
17728;DHT22;8984;49.268;12.302;2023-03-31T00:23:33;10.60;99.90
17728;DHT22;8984;49.268;12.302;2023-03-31T00:26:05;10.70;99.90
17728;DHT22;8984;49.268;12.302;2023-03-31T00:28:50;10.70;99.90
17728;DHT22;8984;49.268;12.302;2023-03-31T00:31:19;10.70;99.90
17728;DHT22;8984;49.268;12.302;2023-03-31T00:33:49;10.70;99.90
17728;DHT22;8984;49.268;12.302;2023-03-31T00:36:22;10.70;99.90
17728;DHT22;8984;49.268;12.302;2023-03-31T00:38:59;10.80;99.90
17728;DHT22;8984;49.268;12.302;2023-03-31T00:41:32;10.70;99.90
17728;DHT22;8984;49.268;12.302;2023-03-31T00:44:07;10.60;99.90
17728;DHT22;8984;49.268;12.302;2023-03-31T00:46:47;10.60;99.90
17728;DHT22;8984;49.268;12.302;2023-03-31T00:49:21;10.60;99.90
17728;DHT22;8984;49.268;12.302;2023-03-31T00:52:02;10.50;99.90
17728;DHT22;8984;49.268;12.302;2023-03-31T00:54:33;10.50;99.90
17728;DHT22;8984;49.268;12.302;2023-03-31T00:57:03;10.40;99.90
17728;DHT22;8984;49.268;12.302;2023-03-31T00:59:37;10.30;99.90
17728;DHT22;8984;49.268;12.302;2023-03-31T01:02:12;10.30;99.90
17728;DHT22;8984;49.268;12.302;2023-03-31T01:04:43;10.30;99.90
17728;DHT22;8984;49.268;12.302;2023-03-31T01:07:19;10.10;99.90
17728;DHT22;8984;49.268;12.302;2023-03-31T01:09:57;10.10;99.90
17728;DHT22;8984;49.268;12.302;2023-03-31T01:12:38;10.10;99.90
17728;DHT22;8984;49.268;12.302;2023-03-31T01:15:10;10.10;99.90
17728;DHT22;8984;49.268;12.302;2023-03-31T01:17:38;10.10;99.90
17728;DHT22;8984;49.268;12.302;2023-03-31T01:20:19;10.10;99.90
17728;DHT22;8984;49.268;12.302;2023-03-31T01:32:25;10.10;99.90
17728;DHT22;8984;49.268;12.302;2023-03-31T01:35:40;10.10;99.90
17728;DHT22;8984;49.268;12.302;2023-03-31T01:38:54;10.10;99.90
17728;DHT22;8984;49.268;12.302;2023-03-31T01:41:48;10.10;99.90
17728;DHT22;8984;49.268;12.302;2023-03-31T01:44:25;10.00;99.90
17728;DHT22;8984;49.268;12.302;2023-03-31T01:46:59;10.00;99.90
17728;DHT22;8984;49.268;12.302;2023-03-31T01:49:33;10.00;99.90
17728;DHT22;8984;49.268;12.302;2023-03-31T01:52:07;10.10;99.90
17728;DHT22;8984;49.268;12.302;2023-03-31T01:57:27;10.20;99.90
17728;DHT22;8984;49.268;12.302;2023-03-31T02:00:00;10.10;99.90
17728;DHT22;8984;49.268;12.302;2023-03-31T02:02:31;10.40;99.90
17728;DHT22;8984;49.268;12.302;2023-03-31T02:05:05;10.40;99.90
17728;DHT22;8984;49.268;12.302;2023-03-31T02:07:36;10.20;99.90
17728;DHT22;8984;49.268;12.302;2023-03-31T02:10:06;10.40;99.90
17728;DHT22;8984;49.268;12.302;2023-03-31T02:12:38;10.20;99.90
17728;DHT22;8984;49.268;12.302;2023-03-31T02:15:09;10.30;99.90
17728;DHT22;8984;49.268;12.302;2023-03-31T02:17:41;10.30;99.90
17728;DHT22;8984;49.268;12.302;2023-03-31T02:20:19;10.30;99.90
17728;DHT22;8984;49.268;12.302;2023-03-31T02:22:51;10.30;99.90
17728;DHT22;8984;49.268;12.302;2023-03-31T02:25:27;10.20;99.90
17728;DHT22;8984;49.268;12.302;2023-03-31T02:28:07;10.20;99.90
17728;DHT22;8984;49.268;12.302;2023-03-31T02:30:48;10.20;99.90
17728;DHT22;8984;49.268;12.302;2023-03-31T02:33:23;10.30;99.90
17728;DHT22;8984;49.268;12.302;2023-03-31T02:35:53;10.30;99.90
17728;DHT22;8984;49.268;12.302;2023-03-31T02:38:32;10.30;99.90
17728;DHT22;8984;49.268;12.302;2023-03-31T02:41:03;10.30;99.90
17728;DHT22;8984;49.268;12.302;2023-03-31T02:43:59;10.30;99.90
17728;DHT22;8984;49.268;12.302;2023-03-31T02:46:30;10.30;99.90
17728;DHT22;8984;49.268;12.302;2023-03-31T02:49:02;10.20;99.90
17728;DHT22;8984;49.268;12.302;2023-03-31T02:52:06;10.20;99.90
17728;DHT22;8984;49.268;12.302;2023-03-31T02:55:14;10.20;99.90
17728;DHT22;8984;49.268;12.302;2023-03-31T02:58:12;10.20;99.90
17728;DHT22;8984;49.268;12.302;2023-03-31T03:04:24;10.10;99.90
17728;DHT22;8984;49.268;12.302;2023-03-31T03:07:22;10.10;99.90
17728;DHT22;8984;49.268;12.302;2023-03-31T03:10:26;10.20;99.90
17728;DHT22;8984;49.268;12.302;2023-03-31T03:13:04;10.20;99.90
17728;DHT22;8984;49.268;12.302;2023-03-31T03:15:43;10.10;99.90
17728;DHT22;8984;49.268;12.302;2023-03-31T03:18:25;10.10;99.90
17728;DHT22;8984;49.268;12.302;2023-03-31T03:21:18;10.20;99.90
17728;DHT22;8984;49.268;12.302;2023-03-31T03:23:51;10.10;99.90
17728;DHT22;8984;49.268;12.302;2023-03-31T03:26:22;10.30;99.90
17728;DHT22;8984;49.268;12.302;2023-03-31T03:28:54;10.20;99.90
17728;DHT22;8984;49.268;12.302;2023-03-31T03:31:28;10.30;99.90
17728;DHT22;8984;49.268;12.302;2023-03-31T03:34:07;10.30;99.90
17728;DHT22;8984;49.268;12.302;2023-03-31T03:36:44;10.30;99.90
17728;DHT22;8984;49.268;12.302;2023-03-31T03:39:18;10.30;99.90
17728;DHT22;8984;49.268;12.302;2023-03-31T03:41:50;10.30;99.90
17728;DHT22;8984;49.268;12.302;2023-03-31T03:44:35;10.40;99.90
17728;DHT22;8984;49.268;12.302;2023-03-31T03:47:21;10.50;99.90
17728;DHT22;8984;49.268;12.302;2023-03-31T03:50:17;10.50;99.90
17728;DHT22;8984;49.268;12.302;2023-03-31T03:52:54;10.50;99.90
17728;DHT22;8984;49.268;12.302;2023-03-31T03:55:40;10.50;99.90
17728;DHT22;8984;49.268;12.302;2023-03-31T03:58:14;10.50;99.90
17728;DHT22;8984;49.268;12.302;2023-03-31T04:00:49;10.50;99.90
17728;DHT22;8984;49.268;12.302;2023-03-31T04:03:19;10.60;99.90
17728;DHT22;8984;49.268;12.302;2023-03-31T04:05:52;10.60;99.90
17728;DHT22;8984;49.268;12.302;2023-03-31T04:08:20;10.70;99.90
17728;DHT22;8984;49.268;12.302;2023-03-31T04:10:56;10.70;99.90
17728;DHT22;8984;49.268;12.302;2023-03-31T04:13:32;10.70;99.90
17728;DHT22;8984;49.268;12.302;2023-03-31T04:16:09;10.70;99.90
17728;DHT22;8984;49.268;12.302;2023-03-31T04:18:55;10.60;99.90
17728;DHT22;8984;49.268;12.302;2023-03-31T04:21:38;10.60;99.90
17728;DHT22;8984;49.268;12.302;2023-03-31T04:24:11;10.60;99.90
17728;DHT22;8984;49.268;12.302;2023-03-31T04:26:47;10.60;99.90
17728;DHT22;8984;49.268;12.302;2023-03-31T04:29:16;10.60;99.90
17728;DHT22;8984;49.268;12.302;2023-03-31T04:31:57;10.60;99.90
17728;DHT22;8984;49.268;12.302;2023-03-31T04:34:39;10.50;99.90
17728;DHT22;8984;49.268;12.302;2023-03-31T04:37:31;10.50;99.90
17728;DHT22;8984;49.268;12.302;2023-03-31T04:40:21;10.50;99.90
17728;DHT22;8984;49.268;12.302;2023-03-31T04:42:51;10.50;99.90
17728;DHT22;8984;49.268;12.302;2023-03-31T04:48:03;10.40;99.90
17728;DHT22;8984;49.268;12.302;2023-03-31T04:50:45;10.40;99.90
17728;DHT22;8984;49.268;12.302;2023-03-31T04:53:24;10.40;99.90
17728;DHT22;8984;49.268;12.302;2023-03-31T04:55:54;10.40;99.90
17728;DHT22;8984;49.268;12.302;2023-03-31T04:58:26;10.40;99.90
17728;DHT22;8984;49.268;12.302;2023-03-31T05:00:58;10.50;99.90
17728;DHT22;8984;49.268;12.302;2023-03-31T05:03:27;10.50;99.90
17728;DHT22;8984;49.268;12.302;2023-03-31T05:05:55;10.40;99.90
17728;DHT22;8984;49.268;12.302;2023-03-31T05:08:33;10.50;99.90
17728;DHT22;8984;49.268;12.302;2023-03-31T05:11:04;10.50;99.90
17728;DHT22;8984;49.268;12.302;2023-03-31T05:14:11;10.50;99.90
17728;DHT22;8984;49.268;12.302;2023-03-31T05:16:42;10.60;99.90
17728;DHT22;8984;49.268;12.302;2023-03-31T05:19:10;10.60;99.90
17728;DHT22;8984;49.268;12.302;2023-03-31T05:21:42;10.60;99.90
17728;DHT22;8984;49.268;12.302;2023-03-31T05:24:16;10.60;99.90
17728;DHT22;8984;49.268;12.302;2023-03-31T05:26:46;10.70;99.90
17728;DHT22;8984;49.268;12.302;2023-03-31T05:32:06;10.60;99.90
17728;DHT22;8984;49.268;12.302;2023-03-31T05:34:38;10.70;99.90
17728;DHT22;8984;49.268;12.302;2023-03-31T05:37:12;10.50;99.90
17728;DHT22;8984;49.268;12.302;2023-03-31T05:39:44;10.50;99.90
17728;DHT22;8984;49.268;12.302;2023-03-31T05:42:14;10.50;99.90
17728;DHT22;8984;49.268;12.302;2023-03-31T05:44:55;10.30;99.90
17728;DHT22;8984;49.268;12.302;2023-03-31T05:47:23;10.50;99.90
17728;DHT22;8984;49.268;12.302;2023-03-31T05:50:05;10.50;99.90
17728;DHT22;8984;49.268;12.302;2023-03-31T05:52:44;10.60;99.90
17728;DHT22;8984;49.268;12.302;2023-03-31T05:55:24;10.50;99.90
17728;DHT22;8984;49.268;12.302;2023-03-31T05:57:53;10.60;99.90
17728;DHT22;8984;49.268;12.302;2023-03-31T06:00:24;10.60;99.90
17728;DHT22;8984;49.268;12.302;2023-03-31T06:02:53;10.70;99.90
17728;DHT22;8984;49.268;12.302;2023-03-31T06:05:24;10.80;99.90
17728;DHT22;8984;49.268;12.302;2023-03-31T06:07:58;10.80;99.90
17728;DHT22;8984;49.268;12.302;2023-03-31T06:10:28;11.00;99.90
17728;DHT22;8984;49.268;12.302;2023-03-31T06:13:03;10.80;99.90
17728;DHT22;8984;49.268;12.302;2023-03-31T06:15:34;10.80;99.90
17728;DHT22;8984;49.268;12.302;2023-03-31T06:18:13;10.80;99.90
17728;DHT22;8984;49.268;12.302;2023-03-31T06:20:45;10.80;99.90
17728;DHT22;8984;49.268;12.302;2023-03-31T06:23:14;10.80;99.90
17728;DHT22;8984;49.268;12.302;2023-03-31T06:25:44;10.80;99.90
17728;DHT22;8984;49.268;12.302;2023-03-31T06:28:22;10.80;99.90
17728;DHT22;8984;49.268;12.302;2023-03-31T06:30:50;10.80;99.90
17728;DHT22;8984;49.268;12.302;2023-03-31T06:33:18;10.80;99.90
17728;DHT22;8984;49.268;12.302;2023-03-31T06:35:51;10.80;99.90
17728;DHT22;8984;49.268;12.302;2023-03-31T06:38:23;10.90;99.90
17728;DHT22;8984;49.268;12.302;2023-03-31T06:40:55;11.00;99.90
17728;DHT22;8984;49.268;12.302;2023-03-31T06:43:34;11.00;99.90
17728;DHT22;8984;49.268;12.302;2023-03-31T06:48:50;11.10;99.90
17728;DHT22;8984;49.268;12.302;2023-03-31T06:51:21;11.10;99.90
17728;DHT22;8984;49.268;12.302;2023-03-31T06:54:12;11.20;99.90
17728;DHT22;8984;49.268;12.302;2023-03-31T06:56:47;11.20;99.90
17728;DHT22;8984;49.268;12.302;2023-03-31T06:59:17;11.20;99.90
17728;DHT22;8984;49.268;12.302;2023-03-31T07:02:01;11.20;99.90
17728;DHT22;8984;49.268;12.302;2023-03-31T07:04:35;11.30;99.90
17728;DHT22;8984;49.268;12.302;2023-03-31T07:07:09;11.30;99.90
17728;DHT22;8984;49.268;12.302;2023-03-31T07:09:51;11.30;99.90
17728;DHT22;8984;49.268;12.302;2023-03-31T07:12:37;11.40;99.90
17728;DHT22;8984;49.268;12.302;2023-03-31T07:15:26;11.70;99.90
17728;DHT22;8984;49.268;12.302;2023-03-31T07:18:00;11.50;99.90
17728;DHT22;8984;49.268;12.302;2023-03-31T07:20:47;11.50;99.90
17728;DHT22;8984;49.268;12.302;2023-03-31T07:23:22;11.50;99.90
17728;DHT22;8984;49.268;12.302;2023-03-31T07:26:11;11.60;99.90
17728;DHT22;8984;49.268;12.302;2023-03-31T07:28:57;11.50;99.90
17728;DHT22;8984;49.268;12.302;2023-03-31T07:31:29;11.50;99.90
17728;DHT22;8984;49.268;12.302;2023-03-31T07:34:11;11.50;99.90
17728;DHT22;8984;49.268;12.302;2023-03-31T07:36:48;11.70;99.90
17728;DHT22;8984;49.268;12.302;2023-03-31T07:39:16;11.50;99.90
17728;DHT22;8984;49.268;12.302;2023-03-31T07:41:46;11.60;99.90
17728;DHT22;8984;49.268;12.302;2023-03-31T07:44:44;11.80;99.90
17728;DHT22;8984;49.268;12.302;2023-03-31T07:47:11;11.60;99.90
17728;DHT22;8984;49.268;12.302;2023-03-31T07:49:39;11.70;99.90
17728;DHT22;8984;49.268;12.302;2023-03-31T07:52:06;11.60;99.90
17728;DHT22;8984;49.268;12.302;2023-03-31T07:54:36;11.50;99.90
17728;DHT22;8984;49.268;12.302;2023-03-31T07:57:04;11.50;99.90
17728;DHT22;8984;49.268;12.302;2023-03-31T07:59:55;11.50;99.90
17728;DHT22;8984;49.268;12.302;2023-03-31T08:02:24;11.50;99.90
17728;DHT22;8984;49.268;12.302;2023-03-31T08:04:51;11.40;99.90
17728;DHT22;8984;49.268;12.302;2023-03-31T08:07:24;11.40;99.90
17728;DHT22;8984;49.268;12.302;2023-03-31T08:09:55;11.50;99.90
17728;DHT22;8984;49.268;12.302;2023-03-31T08:12:38;11.60;99.90
17728;DHT22;8984;49.268;12.302;2023-03-31T08:15:20;11.60;99.90
17728;DHT22;8984;49.268;12.302;2023-03-31T08:17:49;11.40;99.90
17728;DHT22;8984;49.268;12.302;2023-03-31T08:20:20;11.30;99.90
17728;DHT22;8984;49.268;12.302;2023-03-31T08:22:51;11.40;99.90
17728;DHT22;8984;49.268;12.302;2023-03-31T08:25:28;11.20;99.90
17728;DHT22;8984;49.268;12.302;2023-03-31T08:28:01;11.30;99.90
17728;DHT22;8984;49.268;12.302;2023-03-31T08:30:36;11.30;99.90
17728;DHT22;8984;49.268;12.302;2023-03-31T08:33:10;11.10;99.90
17728;DHT22;8984;49.268;12.302;2023-03-31T08:35:40;11.30;99.90
17728;DHT22;8984;49.268;12.302;2023-03-31T08:38:25;11.10;99.90
17728;DHT22;8984;49.268;12.302;2023-03-31T08:40:59;11.10;99.90
17728;DHT22;8984;49.268;12.302;2023-03-31T08:43:33;10.90;99.90
17728;DHT22;8984;49.268;12.302;2023-03-31T08:46:10;11.00;99.90
17728;DHT22;8984;49.268;12.302;2023-03-31T08:48:54;11.00;99.90
17728;DHT22;8984;49.268;12.302;2023-03-31T08:51:32;11.00;99.90
17728;DHT22;8984;49.268;12.302;2023-03-31T08:54:16;11.10;99.90
17728;DHT22;8984;49.268;12.302;2023-03-31T08:56:48;11.00;99.90
17728;DHT22;8984;49.268;12.302;2023-03-31T08:59:29;11.00;99.90
17728;DHT22;8984;49.268;12.302;2023-03-31T09:02:14;11.10;99.90
17728;DHT22;8984;49.268;12.302;2023-03-31T09:05:18;11.10;99.90
17728;DHT22;8984;49.268;12.302;2023-03-31T09:07:57;11.10;99.90
17728;DHT22;8984;49.268;12.302;2023-03-31T09:10:38;10.90;99.90
17728;DHT22;8984;49.268;12.302;2023-03-31T09:13:33;10.90;99.90
17728;DHT22;8984;49.268;12.302;2023-03-31T09:16:15;11.00;99.90
17728;DHT22;8984;49.268;12.302;2023-03-31T09:18:58;11.00;99.90
17728;DHT22;8984;49.268;12.302;2023-03-31T09:22:01;11.10;99.90
17728;DHT22;8984;49.268;12.302;2023-03-31T09:24:39;11.20;99.90
17728;DHT22;8984;49.268;12.302;2023-03-31T09:27:11;11.20;99.90
17728;DHT22;8984;49.268;12.302;2023-03-31T09:29:56;11.30;99.90
17728;DHT22;8984;49.268;12.302;2023-03-31T09:32:29;11.30;99.90
17728;DHT22;8984;49.268;12.302;2023-03-31T09:35:15;11.40;99.90
17728;DHT22;8984;49.268;12.302;2023-03-31T09:37:49;11.40;99.90
17728;DHT22;8984;49.268;12.302;2023-03-31T09:40:22;11.70;99.90
17728;DHT22;8984;49.268;12.302;2023-03-31T09:42:55;11.50;99.90
17728;DHT22;8984;49.268;12.302;2023-03-31T09:45:26;11.40;99.90
17728;DHT22;8984;49.268;12.302;2023-03-31T09:48:04;11.60;99.90
17728;DHT22;8984;49.268;12.302;2023-03-31T09:50:44;11.70;99.90
17728;DHT22;8984;49.268;12.302;2023-03-31T09:53:17;11.90;99.90
17728;DHT22;8984;49.268;12.302;2023-03-31T09:55:51;11.90;99.90
17728;DHT22;8984;49.268;12.302;2023-03-31T09:58:22;12.10;99.90
17728;DHT22;8984;49.268;12.302;2023-03-31T10:01:27;12.30;99.90
17728;DHT22;8984;49.268;12.302;2023-03-31T10:04:07;12.40;99.90
17728;DHT22;8984;49.268;12.302;2023-03-31T10:06:42;12.50;99.90
17728;DHT22;8984;49.268;12.302;2023-03-31T10:09:12;12.60;99.90
17728;DHT22;8984;49.268;12.302;2023-03-31T10:12:02;12.50;99.90
17728;DHT22;8984;49.268;12.302;2023-03-31T10:15:01;12.50;99.90
17728;DHT22;8984;49.268;12.302;2023-03-31T10:17:31;12.40;99.90
17728;DHT22;8984;49.268;12.302;2023-03-31T10:20:22;12.30;99.90
17728;DHT22;8984;49.268;12.302;2023-03-31T10:23:04;12.40;99.90
17728;DHT22;8984;49.268;12.302;2023-03-31T10:25:36;12.40;99.90
17728;DHT22;8984;49.268;12.302;2023-03-31T10:28:11;12.50;99.90
17728;DHT22;8984;49.268;12.302;2023-03-31T10:30:51;12.60;99.90
17728;DHT22;8984;49.268;12.302;2023-03-31T10:33:25;12.60;99.90
17728;DHT22;8984;49.268;12.302;2023-03-31T10:36:06;12.90;99.90
17728;DHT22;8984;49.268;12.302;2023-03-31T10:38:46;13.20;99.90
17728;DHT22;8984;49.268;12.302;2023-03-31T10:41:18;13.50;99.90
17728;DHT22;8984;49.268;12.302;2023-03-31T10:44:34;13.90;99.90
17728;DHT22;8984;49.268;12.302;2023-03-31T10:47:15;14.00;99.90
17728;DHT22;8984;49.268;12.302;2023-03-31T10:50:08;14.10;99.90
17728;DHT22;8984;49.268;12.302;2023-03-31T10:53:26;14.20;99.90
17728;DHT22;8984;49.268;12.302;2023-03-31T10:56:15;14.20;99.90
17728;DHT22;8984;49.268;12.302;2023-03-31T10:58:57;14.00;99.90
17728;DHT22;8984;49.268;12.302;2023-03-31T11:01:33;13.90;99.90
17728;DHT22;8984;49.268;12.302;2023-03-31T11:04:21;13.70;99.90
17728;DHT22;8984;49.268;12.302;2023-03-31T11:06:56;13.60;99.90
17728;DHT22;8984;49.268;12.302;2023-03-31T11:09:40;13.50;99.90
17728;DHT22;8984;49.268;12.302;2023-03-31T11:12:17;13.40;99.90
17728;DHT22;8984;49.268;12.302;2023-03-31T11:14:53;13.50;99.90
17728;DHT22;8984;49.268;12.302;2023-03-31T11:17:33;13.60;99.90
17728;DHT22;8984;49.268;12.302;2023-03-31T11:20:10;13.60;99.90
17728;DHT22;8984;49.268;12.302;2023-03-31T11:22:45;13.70;99.90
17728;DHT22;8984;49.268;12.302;2023-03-31T11:25:25;13.80;99.90
17728;DHT22;8984;49.268;12.302;2023-03-31T11:28:24;14.00;99.90
17728;DHT22;8984;49.268;12.302;2023-03-31T11:30:57;14.10;99.90
17728;DHT22;8984;49.268;12.302;2023-03-31T11:33:46;14.20;99.90
17728;DHT22;8984;49.268;12.302;2023-03-31T11:36:25;14.40;99.90
17728;DHT22;8984;49.268;12.302;2023-03-31T11:39:07;14.70;99.90
17728;DHT22;8984;49.268;12.302;2023-03-31T11:41:40;15.00;99.90
17728;DHT22;8984;49.268;12.302;2023-03-31T11:44:11;15.40;99.90
17728;DHT22;8984;49.268;12.302;2023-03-31T11:46:42;15.70;99.90
17728;DHT22;8984;49.268;12.302;2023-03-31T11:49:15;16.00;99.90
17728;DHT22;8984;49.268;12.302;2023-03-31T11:51:47;16.20;99.90
17728;DHT22;8984;49.268;12.302;2023-03-31T11:54:19;16.10;99.90
17728;DHT22;8984;49.268;12.302;2023-03-31T11:56:50;16.20;99.90
17728;DHT22;8984;49.268;12.302;2023-03-31T11:59:19;16.20;99.90
17728;DHT22;8984;49.268;12.302;2023-03-31T12:01:53;16.20;99.90
17728;DHT22;8984;49.268;12.302;2023-03-31T12:04:29;16.30;99.90
17728;DHT22;8984;49.268;12.302;2023-03-31T12:07:02;16.40;99.90
17728;DHT22;8984;49.268;12.302;2023-03-31T12:09:35;16.70;99.90
17728;DHT22;8984;49.268;12.302;2023-03-31T12:12:10;16.70;99.90
17728;DHT22;8984;49.268;12.302;2023-03-31T12:14:41;16.40;99.90
17728;DHT22;8984;49.268;12.302;2023-03-31T12:17:11;16.60;99.90
17728;DHT22;8984;49.268;12.302;2023-03-31T12:19:44;16.80;99.90
17728;DHT22;8984;49.268;12.302;2023-03-31T12:22:15;17.00;99.90
17728;DHT22;8984;49.268;12.302;2023-03-31T12:24:43;16.90;99.90
17728;DHT22;8984;49.268;12.302;2023-03-31T12:27:16;17.00;99.90
17728;DHT22;8984;49.268;12.302;2023-03-31T12:29:47;17.10;99.90
17728;DHT22;8984;49.268;12.302;2023-03-31T12:32:20;17.00;99.90
17728;DHT22;8984;49.268;12.302;2023-03-31T12:34:53;16.90;99.90
17728;DHT22;8984;49.268;12.302;2023-03-31T12:40:36;16.60;99.90
17728;DHT22;8984;49.268;12.302;2023-03-31T12:43:44;16.40;99.90
17728;DHT22;8984;49.268;12.302;2023-03-31T12:46:27;16.50;99.90
17728;DHT22;8984;49.268;12.302;2023-03-31T12:49:07;16.50;99.90
17728;DHT22;8984;49.268;12.302;2023-03-31T12:51:51;16.40;99.90
17728;DHT22;8984;49.268;12.302;2023-03-31T12:54:39;16.20;99.90
17728;DHT22;8984;49.268;12.302;2023-03-31T12:57:18;15.80;99.90
17728;DHT22;8984;49.268;12.302;2023-03-31T13:00:19;15.60;99.90
17728;DHT22;8984;49.268;12.302;2023-03-31T13:02:47;16.00;99.90
17728;DHT22;8984;49.268;12.302;2023-03-31T13:08:49;16.20;99.90
17728;DHT22;8984;49.268;12.302;2023-03-31T13:11:17;16.30;99.90
17728;DHT22;8984;49.268;12.302;2023-03-31T13:13:46;16.00;99.90
17728;DHT22;8984;49.268;12.302;2023-03-31T13:16:19;15.90;99.90
17728;DHT22;8984;49.268;12.302;2023-03-31T13:18:50;15.90;99.90
17728;DHT22;8984;49.268;12.302;2023-03-31T13:21:18;15.90;99.90
17728;DHT22;8984;49.268;12.302;2023-03-31T13:23:45;16.30;99.90
17728;DHT22;8984;49.268;12.302;2023-03-31T13:26:35;16.30;99.90
17728;DHT22;8984;49.268;12.302;2023-03-31T13:29:22;16.70;99.90
17728;DHT22;8984;49.268;12.302;2023-03-31T13:32:16;16.60;99.90
17728;DHT22;8984;49.268;12.302;2023-03-31T13:34:48;16.60;99.90
17728;DHT22;8984;49.268;12.302;2023-03-31T13:37:28;16.60;99.90
17728;DHT22;8984;49.268;12.302;2023-03-31T13:43:10;16.90;99.90
17728;DHT22;8984;49.268;12.302;2023-03-31T13:45:53;16.80;99.90
17728;DHT22;8984;49.268;12.302;2023-03-31T13:48:43;16.60;99.90
17728;DHT22;8984;49.268;12.302;2023-03-31T13:51:28;16.50;99.90
17728;DHT22;8984;49.268;12.302;2023-03-31T13:54:24;16.40;99.90
17728;DHT22;8984;49.268;12.302;2023-03-31T14:00:25;15.70;99.90
17728;DHT22;8984;49.268;12.302;2023-03-31T14:03:13;15.50;99.90
17728;DHT22;8984;49.268;12.302;2023-03-31T14:05:44;15.20;99.90
17728;DHT22;8984;49.268;12.302;2023-03-31T14:08:18;14.60;99.90
17728;DHT22;8984;49.268;12.302;2023-03-31T14:10:49;13.50;99.90
17728;DHT22;8984;49.268;12.302;2023-03-31T14:13:18;13.10;99.90
17728;DHT22;8984;49.268;12.302;2023-03-31T14:15:47;12.60;99.90
17728;DHT22;8984;49.268;12.302;2023-03-31T14:18:18;12.30;99.90
17728;DHT22;8984;49.268;12.302;2023-03-31T14:20:57;12.20;99.90
17728;DHT22;8984;49.268;12.302;2023-03-31T14:23:40;11.80;99.90
17728;DHT22;8984;49.268;12.302;2023-03-31T14:26:15;12.00;99.90
17728;DHT22;8984;49.268;12.302;2023-03-31T14:29:05;11.90;99.90
17728;DHT22;8984;49.268;12.302;2023-03-31T14:31:39;12.00;99.90
17728;DHT22;8984;49.268;12.302;2023-03-31T14:34:24;12.20;99.90
17728;DHT22;8984;49.268;12.302;2023-03-31T14:36:59;11.70;99.90
17728;DHT22;8984;49.268;12.302;2023-03-31T14:39:30;12.00;99.90
17728;DHT22;8984;49.268;12.302;2023-03-31T14:42:01;12.10;99.90
17728;DHT22;8984;49.268;12.302;2023-03-31T14:44:31;12.30;99.90
17728;DHT22;8984;49.268;12.302;2023-03-31T14:46:58;12.30;99.90
17728;DHT22;8984;49.268;12.302;2023-03-31T14:49:27;12.40;99.90
17728;DHT22;8984;49.268;12.302;2023-03-31T14:52:00;12.80;99.90
17728;DHT22;8984;49.268;12.302;2023-03-31T14:54:33;13.10;99.90
17728;DHT22;8984;49.268;12.302;2023-03-31T14:57:02;13.50;99.90
17728;DHT22;8984;49.268;12.302;2023-03-31T14:59:32;13.90;99.90
17728;DHT22;8984;49.268;12.302;2023-03-31T15:02:01;14.10;99.90
17728;DHT22;8984;49.268;12.302;2023-03-31T15:04:30;14.40;99.90
17728;DHT22;8984;49.268;12.302;2023-03-31T15:07:01;14.40;99.90
17728;DHT22;8984;49.268;12.302;2023-03-31T15:09:32;14.50;99.90
17728;DHT22;8984;49.268;12.302;2023-03-31T15:12:02;14.60;99.90
17728;DHT22;8984;49.268;12.302;2023-03-31T15:14:30;14.70;99.90
17728;DHT22;8984;49.268;12.302;2023-03-31T15:16:59;15.00;99.90
17728;DHT22;8984;49.268;12.302;2023-03-31T15:19:28;14.80;99.90
17728;DHT22;8984;49.268;12.302;2023-03-31T15:21:56;14.80;99.90
17728;DHT22;8984;49.268;12.302;2023-03-31T15:24:27;14.60;99.90
17728;DHT22;8984;49.268;12.302;2023-03-31T15:26:57;14.30;99.90
17728;DHT22;8984;49.268;12.302;2023-03-31T15:29:30;14.30;99.90
17728;DHT22;8984;49.268;12.302;2023-03-31T15:32:00;14.30;99.90
17728;DHT22;8984;49.268;12.302;2023-03-31T15:34:29;14.40;99.90
17728;DHT22;8984;49.268;12.302;2023-03-31T15:36:58;14.40;99.90
17728;DHT22;8984;49.268;12.302;2023-03-31T15:39:28;14.20;99.90
17728;DHT22;8984;49.268;12.302;2023-03-31T15:41:56;14.10;99.90
17728;DHT22;8984;49.268;12.302;2023-03-31T15:44:37;14.00;99.90
17728;DHT22;8984;49.268;12.302;2023-03-31T15:47:15;14.10;99.90
17728;DHT22;8984;49.268;12.302;2023-03-31T15:49:47;14.00;99.90
17728;DHT22;8984;49.268;12.302;2023-03-31T15:52:28;14.20;99.90
17728;DHT22;8984;49.268;12.302;2023-03-31T15:54:57;14.00;99.90
17728;DHT22;8984;49.268;12.302;2023-03-31T15:57:31;14.10;99.90
17728;DHT22;8984;49.268;12.302;2023-03-31T15:59:58;14.10;99.90
17728;DHT22;8984;49.268;12.302;2023-03-31T16:02:30;13.90;99.90
17728;DHT22;8984;49.268;12.302;2023-03-31T16:05:01;13.80;99.90
17728;DHT22;8984;49.268;12.302;2023-03-31T16:07:30;13.70;99.90
17728;DHT22;8984;49.268;12.302;2023-03-31T16:10:02;13.60;99.90
17728;DHT22;8984;49.268;12.302;2023-03-31T16:12:32;13.50;99.90
17728;DHT22;8984;49.268;12.302;2023-03-31T16:15:03;13.60;99.90
17728;DHT22;8984;49.268;12.302;2023-03-31T16:17:33;13.50;99.90
17728;DHT22;8984;49.268;12.302;2023-03-31T16:20:06;13.50;99.90
17728;DHT22;8984;49.268;12.302;2023-03-31T16:22:38;13.40;99.90
17728;DHT22;8984;49.268;12.302;2023-03-31T16:25:12;13.50;99.90
17728;DHT22;8984;49.268;12.302;2023-03-31T16:27:42;13.30;99.90
17728;DHT22;8984;49.268;12.302;2023-03-31T16:30:16;13.30;99.90
17728;DHT22;8984;49.268;12.302;2023-03-31T16:33:02;13.30;99.90
17728;DHT22;8984;49.268;12.302;2023-03-31T16:35:40;13.20;99.90
17728;DHT22;8984;49.268;12.302;2023-03-31T16:38:14;13.10;99.90
17728;DHT22;8984;49.268;12.302;2023-03-31T16:40:53;13.20;99.90
17728;DHT22;8984;49.268;12.302;2023-03-31T16:43:28;13.30;99.90
17728;DHT22;8984;49.268;12.302;2023-03-31T16:46:08;13.40;99.90
17728;DHT22;8984;49.268;12.302;2023-03-31T16:48:38;13.30;99.90
17728;DHT22;8984;49.268;12.302;2023-03-31T16:51:19;13.20;99.90
17728;DHT22;8984;49.268;12.302;2023-03-31T16:56:39;13.20;99.90
17728;DHT22;8984;49.268;12.302;2023-03-31T16:59:07;13.20;99.90
17728;DHT22;8984;49.268;12.302;2023-03-31T17:01:45;13.00;99.90
17728;DHT22;8984;49.268;12.302;2023-03-31T17:04:24;13.00;99.90
17728;DHT22;8984;49.268;12.302;2023-03-31T17:07:13;13.00;99.90
17728;DHT22;8984;49.268;12.302;2023-03-31T17:09:43;13.00;99.90